Terminal Aerodrome Forecast
Issued by NWS

Home | Current Version | Previous Version | Text Only | Print | Product List | Glossary On
Versions: 1 2 3 4 5 6 7 8 9 10 11 12 13 14 15 16 17 18 19 20 21 22 23 24 25 26
000
FTUS46 KLOX 161000 AAB
TAFSBP
TAF AMD
KSBP 161028Z 1610/1706 30004KT 5SM BR OVC004
     FM161600 31004KT 5SM BR OVC009
     FM161900 30012KT P6SM SKC
     FM170400 VRB03KT P6SM SKC=

USA.gov is the U.S. government's official web portal to all federal, state and local government web resources and services.